createdAt,value
2023-08-01T00:01:00.465Z,3.92
2023-08-01T00:03:27.640Z,4.07
2023-08-01T00:05:56.035Z,3.97
2023-08-01T00:08:23.278Z,4.20
2023-08-01T00:10:50.174Z,4.10
2023-08-01T00:13:17.202Z,4.10
2023-08-01T00:15:53.900Z,3.90
2023-08-01T00:18:28.292Z,4.32
2023-08-01T00:20:55.216Z,4.30
2023-08-01T00:23:22.138Z,3.95
2023-08-01T00:25:52.575Z,4.07
2023-08-01T00:28:19.860Z,3.95
2023-08-01T00:30:47.071Z,4.07
2023-08-01T00:33:14.303Z,4.00
2023-08-01T00:35:41.356Z,4.30
2023-08-01T00:38:08.486Z,4.10
2023-08-01T00:40:35.971Z,4.20
2023-08-01T00:43:03.198Z,3.90
2023-08-01T00:45:31.553Z,3.90
2023-08-01T00:47:58.906Z,3.72
2023-08-01T00:50:26.002Z,4.15
2023-08-01T00:52:53.752Z,4.00
2023-08-01T00:55:22.359Z,3.65
2023-08-01T00:57:49.510Z,4.32
2023-08-01T01:00:16.593Z,3.67
2023-08-01T01:02:44.307Z,3.90
2023-08-01T01:05:11.440Z,4.00
2023-08-01T01:07:40.285Z,3.80
2023-08-01T01:10:07.661Z,3.78
2023-08-01T01:12:34.668Z,4.40
2023-08-01T01:15:01.752Z,3.92
2023-08-01T01:17:28.720Z,4.18
2023-08-01T01:19:55.667Z,4.32
2023-08-01T01:22:23.409Z,4.00
2023-08-01T01:24:50.866Z,3.72
2023-08-01T01:27:19.346Z,4.00
2023-08-01T01:29:48.229Z,3.72
2023-08-01T01:32:15.822Z,3.72
2023-08-01T01:34:42.822Z,3.78
2023-08-01T01:37:09.915Z,4.10
2023-08-01T01:39:37.105Z,4.10
2023-08-01T01:42:04.306Z,3.92
2023-08-01T01:44:31.473Z,3.90
2023-08-01T01:46:58.540Z,3.85
2023-08-01T01:49:27.292Z,4.43
2023-08-01T01:51:54.272Z,4.40
2023-08-01T01:54:21.244Z,4.30
2023-08-01T01:56:48.308Z,4.43
2023-08-01T01:59:15.332Z,4.50
2023-08-01T02:01:42.321Z,4.20
2023-08-01T02:04:09.410Z,4.70
2023-08-01T02:06:36.349Z,4.88
2023-08-01T02:09:03.471Z,4.10
2023-08-01T02:11:30.932Z,4.25
2023-08-01T02:13:57.963Z,4.55
2023-08-01T02:16:25.005Z,4.28
2023-08-01T02:18:52.164Z,4.45
2023-08-01T02:21:19.035Z,4.70
2023-08-01T02:23:45.991Z,4.10
2023-08-01T02:26:13.531Z,4.20
2023-08-01T02:28:40.514Z,4.65
2023-08-01T02:31:08.503Z,4.25
2023-08-01T02:33:35.526Z,4.30
2023-08-01T02:36:02.889Z,4.20
2023-08-01T02:38:29.888Z,4.78
2023-08-01T02:40:56.823Z,4.50
2023-08-01T02:43:23.731Z,4.43
2023-08-01T02:45:50.725Z,4.75
2023-08-01T02:48:17.927Z,4.13
2023-08-01T02:50:44.807Z,4.75
2023-08-01T02:53:11.742Z,4.45
2023-08-01T02:55:39.680Z,4.50
2023-08-01T02:58:06.568Z,4.65
2023-08-01T03:00:33.424Z,4.65
2023-08-01T03:03:00.443Z,4.70
2023-08-01T03:05:27.587Z,4.80
2023-08-01T03:07:54.710Z,4.70
2023-08-01T03:10:35.040Z,4.80
2023-08-01T03:13:03.981Z,4.72
2023-08-01T03:15:30.867Z,4.65
2023-08-01T03:17:58.121Z,4.40
2023-08-01T03:20:25.220Z,4.40
2023-08-01T03:22:52.555Z,5.00
2023-08-01T03:25:19.599Z,4.60
2023-08-01T03:27:46.554Z,4.45
2023-08-01T03:30:13.538Z,4.88
2023-08-01T03:32:41.484Z,4.25
2023-08-01T03:35:09.279Z,4.72
2023-08-01T03:37:36.189Z,4.50
2023-08-01T03:40:03.146Z,4.45
2023-08-01T03:42:30.628Z,4.50
2023-08-01T03:44:57.621Z,4.65
2023-08-01T03:47:24.528Z,4.68
2023-08-01T03:49:51.497Z,4.75
2023-08-01T03:52:18.451Z,4.32
2023-08-01T03:54:48.565Z,4.57
2023-08-01T03:57:16.221Z,4.45
2023-08-01T03:59:43.699Z,4.88
2023-08-01T04:02:10.649Z,4.85
2023-08-01T04:04:37.614Z,4.68
2023-08-01T04:07:05.553Z,4.68
2023-08-01T04:09:32.409Z,4.60
2023-08-01T04:11:59.392Z,4.38
2023-08-01T04:14:26.297Z,3.92
2023-08-01T04:16:53.224Z,4.25
2023-08-01T04:19:20.116Z,4.25
2023-08-01T04:21:47.018Z,4.25
2023-08-01T04:24:13.873Z,4.18
2023-08-01T04:26:41.034Z,4.07
2023-08-01T04:29:08.204Z,4.10
2023-08-01T04:31:35.164Z,4.30
2023-08-01T04:34:02.149Z,3.97
2023-08-01T04:36:29.138Z,4.38
2023-08-01T04:38:56.014Z,4.60
2023-08-01T04:41:22.976Z,4.20
2023-08-01T04:43:49.996Z,4.60
2023-08-01T04:46:17.054Z,4.13
2023-08-01T04:48:43.955Z,4.00
2023-08-01T04:51:10.922Z,3.97
2023-08-01T04:53:37.855Z,3.70
2023-08-01T04:56:04.959Z,4.28
2023-08-01T04:58:31.938Z,3.95
2023-08-01T05:00:58.931Z,4.15
2023-08-01T05:03:26.176Z,4.53
2023-08-01T05:05:53.337Z,4.43
2023-08-01T05:08:20.277Z,4.20
2023-08-01T05:10:47.246Z,4.00
2023-08-01T05:13:14.381Z,4.20
2023-08-01T05:15:41.399Z,4.20
2023-08-01T05:18:08.305Z,4.03
2023-08-01T05:20:35.719Z,3.65
2023-08-01T05:23:02.809Z,4.05
2023-08-01T05:25:29.717Z,5.40
2023-08-01T05:27:56.757Z,4.00
2023-08-01T05:30:23.828Z,3.80
2023-08-01T05:32:50.708Z,3.53
2023-08-01T05:35:18.590Z,3.83
2023-08-01T05:37:47.643Z,3.47
2023-08-01T05:40:14.873Z,3.75
2023-08-01T05:42:41.902Z,3.50
2023-08-01T05:45:09.523Z,3.50
2023-08-01T05:47:37.866Z,3.60
2023-08-01T05:50:05.186Z,3.65
2023-08-01T05:52:32.147Z,3.47
2023-08-01T05:54:59.272Z,4.07
2023-08-01T05:57:26.536Z,3.53
2023-08-01T05:59:54.484Z,3.80
2023-08-01T06:02:21.550Z,4.13
2023-08-01T06:04:48.644Z,3.80
2023-08-01T06:07:15.690Z,3.65
2023-08-01T06:09:42.617Z,3.42
2023-08-01T06:12:09.718Z,3.83
2023-08-01T06:14:36.709Z,3.70
2023-08-01T06:17:03.747Z,3.70
2023-08-01T06:19:30.790Z,3.83
2023-08-01T06:21:57.705Z,3.75
2023-08-01T06:24:24.548Z,3.63
2023-08-01T06:26:51.477Z,3.85
2023-08-01T06:29:18.436Z,3.97
2023-08-01T06:31:45.492Z,3.53
2023-08-01T06:34:12.495Z,3.78
2023-08-01T06:36:39.741Z,3.45
2023-08-01T06:39:07.002Z,3.60
2023-08-01T06:41:34.103Z,3.72
2023-08-01T06:44:01.083Z,3.83
2023-08-01T06:46:28.113Z,3.35
2023-08-01T06:48:55.151Z,3.30
2023-08-01T06:51:22.638Z,3.50
2023-08-01T06:53:49.655Z,3.33
2023-08-01T06:56:16.533Z,3.40
2023-08-01T06:58:43.512Z,3.47
2023-08-01T07:01:10.576Z,3.40
2023-08-01T07:03:37.788Z,3.22
2023-08-01T07:06:07.251Z,3.38
2023-08-01T07:08:35.104Z,3.63
2023-08-01T07:11:02.060Z,3.92
2023-08-01T07:13:29.061Z,3.83
2023-08-01T07:15:56.120Z,3.78
2023-08-01T07:18:23.086Z,3.60
2023-08-01T07:20:59.824Z,3.80
2023-08-01T07:23:26.844Z,3.35
2023-08-01T07:25:53.780Z,3.70
2023-08-01T07:28:20.760Z,3.28
2023-08-01T07:30:47.712Z,3.78
2023-08-01T07:33:15.678Z,3.60
2023-08-01T07:35:42.580Z,4.00
2023-08-01T07:38:09.724Z,3.90
2023-08-01T07:40:38.168Z,3.78
2023-08-01T07:43:05.098Z,3.78
2023-08-01T07:45:36.099Z,3.60
2023-08-01T07:48:03.339Z,3.92
2023-08-01T07:50:30.517Z,3.53
2023-08-01T07:52:57.544Z,3.40
2023-08-01T07:55:24.834Z,3.67
2023-08-01T07:57:52.022Z,3.67
2023-08-01T08:00:19.145Z,3.35
2023-08-01T08:02:47.377Z,3.97
2023-08-01T08:05:14.450Z,4.15
2023-08-01T08:07:41.495Z,4.60
2023-08-01T08:10:08.951Z,4.03
2023-08-01T08:12:36.028Z,4.00
2023-08-01T08:15:03.597Z,4.28
2023-08-01T08:17:30.487Z,4.20
2023-08-01T08:19:57.503Z,4.03
2023-08-01T08:22:24.563Z,4.03
2023-08-01T08:24:51.527Z,4.30
2023-08-01T08:27:18.502Z,4.22
2023-08-01T08:29:45.468Z,3.70
2023-08-01T08:32:12.476Z,3.90
2023-08-01T08:34:40.806Z,4.07
2023-08-01T08:37:07.907Z,4.07
2023-08-01T08:39:34.972Z,4.50
2023-08-01T08:42:02.303Z,5.40
2023-08-01T08:44:31.966Z,4.63
2023-08-01T08:47:05.488Z,4.32
2023-08-01T08:49:33.589Z,4.10
2023-08-01T08:52:00.940Z,4.32
2023-08-01T08:54:28.587Z,4.07
2023-08-01T08:56:56.465Z,3.90
2023-08-01T08:59:26.284Z,4.20
2023-08-01T09:01:53.317Z,3.83
2023-08-01T09:04:20.361Z,3.40
2023-08-01T09:06:51.963Z,3.85
2023-08-01T09:09:19.667Z,3.70
2023-08-01T09:11:51.301Z,3.50
2023-08-01T09:14:19.852Z,3.45
2023-08-01T09:16:50.609Z,3.67
2023-08-01T09:19:19.684Z,3.50
2023-08-01T09:21:47.698Z,3.80
2023-08-01T09:24:16.750Z,3.30
2023-08-01T09:26:44.310Z,3.67
2023-08-01T09:29:11.873Z,3.95
2023-08-01T09:31:43.694Z,3.58
2023-08-01T09:34:27.579Z,3.70
2023-08-01T09:37:01.920Z,3.40
2023-08-01T09:39:29.197Z,3.55
2023-08-01T09:42:00.690Z,3.50
2023-08-01T09:44:29.971Z,3.30
2023-08-01T09:47:09.326Z,3.47
2023-08-01T09:49:37.601Z,3.60
2023-08-01T09:52:04.827Z,3.80
2023-08-01T09:54:32.157Z,3.75
2023-08-01T09:56:59.589Z,3.95
2023-08-01T09:59:27.517Z,3.70
2023-08-01T10:01:55.858Z,3.70
2023-08-01T10:04:30.008Z,3.90
2023-08-01T10:07:06.513Z,5.07
2023-08-01T10:09:36.741Z,5.05
2023-08-01T10:12:06.006Z,3.80
2023-08-01T10:14:37.433Z,3.90
2023-08-01T10:17:04.812Z,3.85
2023-08-01T10:19:36.648Z,3.80
2023-08-01T10:22:04.651Z,4.13
2023-08-01T10:24:33.860Z,4.40
2023-08-01T10:27:14.968Z,4.30
2023-08-01T10:29:43.322Z,3.97
2023-08-01T10:32:11.978Z,4.00
2023-08-01T10:34:39.003Z,4.20
2023-08-01T10:37:06.193Z,4.22
2023-08-01T10:39:33.302Z,4.00
2023-08-01T10:42:01.696Z,4.20
2023-08-01T10:44:29.492Z,4.20
2023-08-01T10:46:58.676Z,4.40
2023-08-01T10:49:45.214Z,4.35
2023-08-01T10:52:19.081Z,4.20
2023-08-01T10:54:47.048Z,4.22
2023-08-01T10:57:21.161Z,4.47
2023-08-01T10:59:48.649Z,4.32
2023-08-01T11:02:25.689Z,4.55
2023-08-01T11:04:59.833Z,4.60
2023-08-01T11:07:27.316Z,4.78
2023-08-01T11:10:12.013Z,4.47
2023-08-01T11:12:43.713Z,5.22
2023-08-01T11:15:15.214Z,5.38
2023-08-01T11:17:47.559Z,5.65
2023-08-01T11:20:15.016Z,5.20
2023-08-01T11:23:03.288Z,4.50
2023-08-01T11:25:42.164Z,4.95
2023-08-01T11:28:11.890Z,5.28
2023-08-01T11:30:39.476Z,4.65
2023-08-01T11:33:25.751Z,4.57
2023-08-01T11:36:03.150Z,4.80
2023-08-01T11:38:32.238Z,4.60
2023-08-01T11:40:59.593Z,4.78
2023-08-01T11:43:26.776Z,4.88
2023-08-01T11:45:56.044Z,4.50
2023-08-01T11:48:24.510Z,4.90
2023-08-01T11:51:01.751Z,4.57
2023-08-01T11:53:30.297Z,4.85
2023-08-01T11:56:00.345Z,4.90
2023-08-01T11:58:38.001Z,4.53
2023-08-01T12:01:09.664Z,4.65
2023-08-01T12:03:54.226Z,12.57
2023-08-01T12:06:23.647Z,5.43
2023-08-01T12:08:52.982Z,5.43
2023-08-01T12:11:31.301Z,5.28
2023-08-01T12:14:13.221Z,7.68
2023-08-01T12:16:41.971Z,4.53
2023-08-01T12:19:10.322Z,4.97
2023-08-01T12:21:38.133Z,4.72
2023-08-01T12:24:05.588Z,4.55
2023-08-01T12:26:32.665Z,4.05
2023-08-01T12:28:59.781Z,4.70
2023-08-01T12:31:26.929Z,4.93
2023-08-01T12:33:54.835Z,4.28
2023-08-01T12:36:22.376Z,4.22
2023-08-01T12:38:49.454Z,4.43
2023-08-01T12:41:16.458Z,4.38
2023-08-01T12:43:43.970Z,4.60
2023-08-01T12:46:11.105Z,4.07
2023-08-01T12:48:38.139Z,4.32
2023-08-01T12:51:05.146Z,4.15
2023-08-01T12:53:32.144Z,4.57
2023-08-01T12:56:05.499Z,4.40
2023-08-01T12:58:33.095Z,4.55
2023-08-01T13:01:00.356Z,4.68
2023-08-01T13:03:29.201Z,4.30
2023-08-01T13:05:58.511Z,4.10
2023-08-01T13:08:25.754Z,5.18
2023-08-01T13:10:53.150Z,4.75
2023-08-01T13:13:20.362Z,4.22
2023-08-01T13:15:48.266Z,4.00
2023-08-01T13:18:15.430Z,4.43
2023-08-01T13:20:42.352Z,4.25
2023-08-01T13:23:09.668Z,4.55
2023-08-01T13:25:37.056Z,4.30
2023-08-01T13:28:05.123Z,3.83
2023-08-01T13:30:32.547Z,4.03
2023-08-01T13:32:59.570Z,4.00
2023-08-01T13:35:26.844Z,4.40
2023-08-01T13:37:53.927Z,4.10
2023-08-01T13:40:21.397Z,4.13
2023-08-01T13:42:48.684Z,4.28
2023-08-01T13:45:15.745Z,4.10
2023-08-01T13:47:42.822Z,4.40
2023-08-01T13:50:10.499Z,4.03
2023-08-01T13:52:40.609Z,4.43
2023-08-01T13:55:08.790Z,4.10
2023-08-01T13:57:35.796Z,4.80
2023-08-01T14:00:12.063Z,4.50
2023-08-01T14:02:42.837Z,4.13
2023-08-01T14:05:10.520Z,4.68
2023-08-01T14:07:41.603Z,4.38
2023-08-01T14:10:11.233Z,4.53
2023-08-01T14:12:38.276Z,4.60
2023-08-01T14:15:09.199Z,4.35
2023-08-01T14:17:36.673Z,4.57
2023-08-01T14:20:07.485Z,5.30
2023-08-01T14:22:34.488Z,5.00
2023-08-01T14:25:01.627Z,4.55
2023-08-01T14:27:28.628Z,4.70
2023-08-01T14:29:55.634Z,4.75
2023-08-01T14:32:22.706Z,4.60
2023-08-01T14:34:49.661Z,4.80
2023-08-01T14:37:16.680Z,5.07
2023-08-01T14:39:43.942Z,4.57
2023-08-01T14:42:10.881Z,4.63
2023-08-01T14:44:37.867Z,4.45
2023-08-01T14:47:05.175Z,4.53
2023-08-01T14:49:32.138Z,5.30
2023-08-01T14:51:59.249Z,5.28
2023-08-01T14:56:57.452Z,4.40
2023-08-01T14:59:24.842Z,4.75
2023-08-01T15:01:52.011Z,4.70
2023-08-01T15:04:19.135Z,7.82
2023-08-01T15:06:46.380Z,6.40
2023-08-01T15:09:14.902Z,5.93
2023-08-01T15:11:42.195Z,5.32
2023-08-01T15:14:09.398Z,5.82
2023-08-01T15:16:36.460Z,5.93
2023-08-01T15:19:03.759Z,5.80
2023-08-01T15:21:33.823Z,5.32
2023-08-01T15:24:01.369Z,5.72
2023-08-01T15:26:28.270Z,5.90
2023-08-01T15:28:55.485Z,5.68
2023-08-01T15:31:22.851Z,5.68
2023-08-01T15:33:49.874Z,5.68
2023-08-01T15:36:16.901Z,6.00
2023-08-01T15:38:44.163Z,6.00
2023-08-01T15:41:11.572Z,5.53
2023-08-01T15:43:40.910Z,6.28
2023-08-01T15:46:09.786Z,6.15
2023-08-01T15:48:37.916Z,5.97
2023-08-01T15:51:06.842Z,5.45
2023-08-01T15:53:34.772Z,5.75
2023-08-01T15:56:04.522Z,5.53
2023-08-01T15:58:32.011Z,5.55
2023-08-01T16:01:00.128Z,5.43
2023-08-01T16:03:28.417Z,5.20
2023-08-01T16:05:56.129Z,5.90
2023-08-01T16:08:23.282Z,5.45
2023-08-01T16:10:50.266Z,5.70
2023-08-01T16:13:17.490Z,5.30
2023-08-01T16:15:44.596Z,5.10
2023-08-01T16:18:11.581Z,5.45
2023-08-01T16:20:38.588Z,5.18
2023-08-01T16:23:06.536Z,4.55
2023-08-01T16:25:34.048Z,4.85
2023-08-01T16:28:01.197Z,4.85
2023-08-01T16:30:28.660Z,4.50
2023-08-01T16:32:56.835Z,4.28
2023-08-01T16:35:24.137Z,4.35
2023-08-01T16:37:51.324Z,4.80
2023-08-01T16:40:18.513Z,4.43
2023-08-01T16:42:45.720Z,4.82
2023-08-01T16:45:13.631Z,4.63
2023-08-01T16:47:43.516Z,4.47
2023-08-01T16:50:18.439Z,4.30
2023-08-01T16:52:46.630Z,4.70
2023-08-01T16:55:16.627Z,8.77
2023-08-01T16:57:44.061Z,7.50
2023-08-01T17:00:13.594Z,7.60
2023-08-01T17:02:40.692Z,6.45
2023-08-01T17:05:08.441Z,5.55
2023-08-01T17:07:35.553Z,8.52
2023-08-01T17:10:04.390Z,7.55
2023-08-01T21:30:39.132Z,5.50
2023-08-01T21:33:06.849Z,5.40
2023-08-01T21:35:33.888Z,5.05
2023-08-01T21:38:00.835Z,5.53
2023-08-01T21:40:27.759Z,4.55
2023-08-01T21:42:54.733Z,5.38
2023-08-01T21:45:21.666Z,5.10
2023-08-01T21:47:48.634Z,5.50
2023-08-01T21:50:15.593Z,5.13
2023-08-01T21:52:42.685Z,5.40
2023-08-01T21:55:09.739Z,5.80
2023-08-01T21:57:36.637Z,5.28
2023-08-01T22:00:03.915Z,5.28
2023-08-01T22:02:32.079Z,5.18
2023-08-01T22:04:59.127Z,5.55
2023-08-01T22:07:26.147Z,5.47
2023-08-01T22:09:53.355Z,5.70
2023-08-01T22:12:20.237Z,5.30
2023-08-01T22:14:48.117Z,5.00
2023-08-01T22:17:15.100Z,5.65
2023-08-01T22:19:43.736Z,5.18
2023-08-01T22:22:10.638Z,5.25
2023-08-01T22:24:37.793Z,5.32
2023-08-01T22:27:05.389Z,5.25
2023-08-01T22:29:32.344Z,5.50
2023-08-01T22:31:59.334Z,5.47
2023-08-01T22:34:26.558Z,5.63
2023-08-01T22:36:53.513Z,5.38
2023-08-01T22:39:20.440Z,5.47
2023-08-01T22:41:47.477Z,5.43
2023-08-01T22:44:14.520Z,5.13
2023-08-01T22:46:42.047Z,5.50
2023-08-01T22:49:11.049Z,5.65
2023-08-01T22:51:38.002Z,5.40
2023-08-01T22:54:05.438Z,5.13
2023-08-01T22:56:32.314Z,5.25
2023-08-01T22:58:59.305Z,5.32
2023-08-01T23:01:26.486Z,5.22
2023-08-01T23:03:54.906Z,5.80
2023-08-01T23:06:21.993Z,5.25
2023-08-01T23:08:49.864Z,5.40
2023-08-01T23:11:16.991Z,5.07
2023-08-01T23:13:44.011Z,5.40
2023-08-01T23:16:11.095Z,4.95
2023-08-01T23:18:38.123Z,5.57
2023-08-01T23:21:05.320Z,5.20
2023-08-01T23:23:32.257Z,6.15
2023-08-01T23:26:07.265Z,5.40
2023-08-01T23:28:35.477Z,5.10
2023-08-01T23:31:02.669Z,4.82
2023-08-01T23:33:29.765Z,5.30
2023-08-01T23:35:56.743Z,5.60
2023-08-01T23:38:24.570Z,4.93
2023-08-01T23:40:51.657Z,5.18
2023-08-01T23:43:19.065Z,5.03
2023-08-01T23:45:50.786Z,5.10
2023-08-01T23:48:17.824Z,5.03
2023-08-01T23:50:47.129Z,5.35
2023-08-01T23:53:18.029Z,5.47
2023-08-01T23:55:47.397Z,5.38
2023-08-01T23:58:15.334Z,5.28
